sensor_id;sensor_type;location;lat;lon;timestamp;temperature;humidity
14057;DHT22;7103;54.300;10.180;2023-03-20T00:02:21;8.80;99.90
14057;DHT22;7103;54.300;10.180;2023-03-20T00:04:48;8.80;99.90
14057;DHT22;7103;54.300;10.180;2023-03-20T00:07:15;8.80;99.90
14057;DHT22;7103;54.300;10.180;2023-03-20T00:09:42;8.70;99.90
14057;DHT22;7103;54.300;10.180;2023-03-20T00:12:20;8.60;99.90
14057;DHT22;7103;54.300;10.180;2023-03-20T00:14:48;8.60;99.90
14057;DHT22;7103;54.300;10.180;2023-03-20T00:17:18;8.60;99.90
14057;DHT22;7103;54.300;10.180;2023-03-20T00:19:46;8.50;99.90
14057;DHT22;7103;54.300;10.180;2023-03-20T00:22:13;8.40;99.90
14057;DHT22;7103;54.300;10.180;2023-03-20T00:24:40;8.50;99.90
14057;DHT22;7103;54.300;10.180;2023-03-20T00:27:11;8.40;99.90
14057;DHT22;7103;54.300;10.180;2023-03-20T00:32:13;8.40;99.90
14057;DHT22;7103;54.300;10.180;2023-03-20T00:34:40;8.40;99.90
14057;DHT22;7103;54.300;10.180;2023-03-20T00:37:08;8.40;99.90
14057;DHT22;7103;54.300;10.180;2023-03-20T00:39:35;8.30;99.90
14057;DHT22;7103;54.300;10.180;2023-03-20T00:42:03;8.20;99.90
14057;DHT22;7103;54.300;10.180;2023-03-20T00:44:51;8.20;99.90
14057;DHT22;7103;54.300;10.180;2023-03-20T00:47:21;8.30;99.90
14057;DHT22;7103;54.300;10.180;2023-03-20T00:49:51;8.20;99.90
14057;DHT22;7103;54.300;10.180;2023-03-20T00:52:19;8.20;99.90
14057;DHT22;7103;54.300;10.180;2023-03-20T00:54:47;8.20;99.90
14057;DHT22;7103;54.300;10.180;2023-03-20T00:57:45;8.10;99.90
14057;DHT22;7103;54.300;10.180;2023-03-20T01:00:20;8.20;99.90
14057;DHT22;7103;54.300;10.180;2023-03-20T01:02:50;8.20;99.90
14057;DHT22;7103;54.300;10.180;2023-03-20T01:05:18;8.00;99.90
14057;DHT22;7103;54.300;10.180;2023-03-20T01:07:46;8.00;99.90
14057;DHT22;7103;54.300;10.180;2023-03-20T01:10:13;8.00;99.90
14057;DHT22;7103;54.300;10.180;2023-03-20T01:12:41;7.90;99.90
14057;DHT22;7103;54.300;10.180;2023-03-20T01:17:42;7.80;99.90
14057;DHT22;7103;54.300;10.180;2023-03-20T01:20:21;7.90;99.90
14057;DHT22;7103;54.300;10.180;2023-03-20T01:22:48;7.80;99.90
14057;DHT22;7103;54.300;10.180;2023-03-20T01:25:16;7.80;99.90
14057;DHT22;7103;54.300;10.180;2023-03-20T01:27:52;7.80;99.90
14057;DHT22;7103;54.300;10.180;2023-03-20T01:30:27;7.80;99.90
14057;DHT22;7103;54.300;10.180;2023-03-20T01:32:54;7.70;99.90
14057;DHT22;7103;54.300;10.180;2023-03-20T01:35:23;7.60;99.90
14057;DHT22;7103;54.300;10.180;2023-03-20T01:37:51;7.50;99.90
14057;DHT22;7103;54.300;10.180;2023-03-20T01:40:39;7.50;99.90
14057;DHT22;7103;54.300;10.180;2023-03-20T01:43:13;7.40;99.90
14057;DHT22;7103;54.300;10.180;2023-03-20T01:45:53;7.40;99.90
14057;DHT22;7103;54.300;10.180;2023-03-20T01:48:22;7.40;99.90
14057;DHT22;7103;54.300;10.180;2023-03-20T01:50:50;7.40;99.90
14057;DHT22;7103;54.300;10.180;2023-03-20T01:53:23;7.30;99.90
14057;DHT22;7103;54.300;10.180;2023-03-20T01:55:52;7.20;99.90
14057;DHT22;7103;54.300;10.180;2023-03-20T01:58:25;7.20;99.90
14057;DHT22;7103;54.300;10.180;2023-03-20T02:00:53;7.20;99.90
14057;DHT22;7103;54.300;10.180;2023-03-20T02:03:20;7.20;99.90
14057;DHT22;7103;54.300;10.180;2023-03-20T02:05:49;7.20;99.90
14057;DHT22;7103;54.300;10.180;2023-03-20T02:08:23;7.10;99.90
14057;DHT22;7103;54.300;10.180;2023-03-20T02:10:53;7.10;99.90
14057;DHT22;7103;54.300;10.180;2023-03-20T02:13:20;7.20;99.90
14057;DHT22;7103;54.300;10.180;2023-03-20T02:18:25;7.10;99.90
14057;DHT22;7103;54.300;10.180;2023-03-20T02:21:02;7.10;99.90
14057;DHT22;7103;54.300;10.180;2023-03-20T02:26:55;7.10;99.90
14057;DHT22;7103;54.300;10.180;2023-03-20T02:44:07;7.10;99.90
14057;DHT22;7103;54.300;10.180;2023-03-20T02:50:10;7.20;99.90
14057;DHT22;7103;54.300;10.180;2023-03-20T02:52:54;7.20;99.90
14057;DHT22;7103;54.300;10.180;2023-03-20T02:58:15;7.30;99.90
14057;DHT22;7103;54.300;10.180;2023-03-20T03:03:34;7.30;99.90
14057;DHT22;7103;54.300;10.180;2023-03-20T03:06:11;7.30;99.90
14057;DHT22;7103;54.300;10.180;2023-03-20T03:08:43;7.40;99.90
14057;DHT22;7103;54.300;10.180;2023-03-20T03:11:12;7.30;99.90
14057;DHT22;7103;54.300;10.180;2023-03-20T03:13:48;7.40;99.90
14057;DHT22;7103;54.300;10.180;2023-03-20T03:16:26;7.40;99.90
14057;DHT22;7103;54.300;10.180;2023-03-20T03:19:21;7.40;99.90
14057;DHT22;7103;54.300;10.180;2023-03-20T03:21:49;7.40;99.90
14057;DHT22;7103;54.300;10.180;2023-03-20T03:24:37;7.40;99.90
14057;DHT22;7103;54.300;10.180;2023-03-20T03:27:31;7.30;99.90
14057;DHT22;7103;54.300;10.180;2023-03-20T03:30:04;7.30;99.90
14057;DHT22;7103;54.300;10.180;2023-03-20T03:32:35;7.40;99.90
14057;DHT22;7103;54.300;10.180;2023-03-20T03:35:04;7.30;99.90
14057;DHT22;7103;54.300;10.180;2023-03-20T03:40:17;7.40;99.90
14057;DHT22;7103;54.300;10.180;2023-03-20T03:42:54;7.40;99.90
14057;DHT22;7103;54.300;10.180;2023-03-20T03:45:30;7.40;99.90
14057;DHT22;7103;54.300;10.180;2023-03-20T03:48:19;7.40;99.90
14057;DHT22;7103;54.300;10.180;2023-03-20T03:50:51;7.40;99.90
14057;DHT22;7103;54.300;10.180;2023-03-20T03:53:41;7.40;99.90
14057;DHT22;7103;54.300;10.180;2023-03-20T03:56:11;7.40;99.90
14057;DHT22;7103;54.300;10.180;2023-03-20T03:58:42;7.30;99.90
14057;DHT22;7103;54.300;10.180;2023-03-20T04:01:12;7.40;99.90
14057;DHT22;7103;54.300;10.180;2023-03-20T04:03:46;7.40;99.90
14057;DHT22;7103;54.300;10.180;2023-03-20T04:06:15;7.40;99.90
14057;DHT22;7103;54.300;10.180;2023-03-20T04:08:43;7.20;99.90
14057;DHT22;7103;54.300;10.180;2023-03-20T04:11:18;7.30;99.90
14057;DHT22;7103;54.300;10.180;2023-03-20T04:13:47;7.50;99.90
14057;DHT22;7103;54.300;10.180;2023-03-20T04:16:16;7.40;99.90
14057;DHT22;7103;54.300;10.180;2023-03-20T04:18:43;7.40;99.90
14057;DHT22;7103;54.300;10.180;2023-03-20T04:21:11;7.30;99.90
14057;DHT22;7103;54.300;10.180;2023-03-20T04:23:38;7.30;99.90
14057;DHT22;7103;54.300;10.180;2023-03-20T04:26:05;7.30;99.90
14057;DHT22;7103;54.300;10.180;2023-03-20T04:28:33;7.30;99.90
14057;DHT22;7103;54.300;10.180;2023-03-20T04:31:00;7.30;99.90
14057;DHT22;7103;54.300;10.180;2023-03-20T04:33:28;7.30;99.90
14057;DHT22;7103;54.300;10.180;2023-03-20T04:35:56;7.30;99.90
14057;DHT22;7103;54.300;10.180;2023-03-20T04:38:23;7.30;99.90
14057;DHT22;7103;54.300;10.180;2023-03-20T04:40:50;7.40;99.90
14057;DHT22;7103;54.300;10.180;2023-03-20T04:43:17;7.30;99.90
14057;DHT22;7103;54.300;10.180;2023-03-20T04:45:45;7.30;99.90
14057;DHT22;7103;54.300;10.180;2023-03-20T04:48:12;7.30;99.90
14057;DHT22;7103;54.300;10.180;2023-03-20T04:50:39;7.30;99.90
14057;DHT22;7103;54.300;10.180;2023-03-20T04:53:06;7.30;99.90
14057;DHT22;7103;54.300;10.180;2023-03-20T04:55:33;7.30;99.90
14057;DHT22;7103;54.300;10.180;2023-03-20T04:58:00;7.30;99.90
14057;DHT22;7103;54.300;10.180;2023-03-20T05:00:27;7.30;99.90
14057;DHT22;7103;54.300;10.180;2023-03-20T05:02:54;7.30;99.90
14057;DHT22;7103;54.300;10.180;2023-03-20T05:05:21;7.30;99.90
14057;DHT22;7103;54.300;10.180;2023-03-20T05:07:50;7.30;99.90
14057;DHT22;7103;54.300;10.180;2023-03-20T05:10:18;7.30;99.90
14057;DHT22;7103;54.300;10.180;2023-03-20T05:12:46;7.30;99.90
14057;DHT22;7103;54.300;10.180;2023-03-20T05:15:13;7.40;99.90
14057;DHT22;7103;54.300;10.180;2023-03-20T05:17:40;7.50;99.90
14057;DHT22;7103;54.300;10.180;2023-03-20T05:20:07;7.40;99.90
14057;DHT22;7103;54.300;10.180;2023-03-20T05:22:34;7.40;99.90
14057;DHT22;7103;54.300;10.180;2023-03-20T05:25:01;7.40;99.90
14057;DHT22;7103;54.300;10.180;2023-03-20T05:27:29;7.40;99.90
14057;DHT22;7103;54.300;10.180;2023-03-20T05:29:56;7.40;99.90
14057;DHT22;7103;54.300;10.180;2023-03-20T05:32:23;7.40;99.90
14057;DHT22;7103;54.300;10.180;2023-03-20T05:34:49;7.30;99.90
14057;DHT22;7103;54.300;10.180;2023-03-20T05:37:16;7.30;99.90
14057;DHT22;7103;54.300;10.180;2023-03-20T05:39:43;7.30;99.90
14057;DHT22;7103;54.300;10.180;2023-03-20T05:42:10;7.40;99.90
14057;DHT22;7103;54.300;10.180;2023-03-20T05:44:37;7.40;99.90
14057;DHT22;7103;54.300;10.180;2023-03-20T05:47:04;7.40;99.90
14057;DHT22;7103;54.300;10.180;2023-03-20T05:49:31;7.40;99.90
14057;DHT22;7103;54.300;10.180;2023-03-20T05:51:58;7.50;99.90
14057;DHT22;7103;54.300;10.180;2023-03-20T05:54:25;7.40;99.90
14057;DHT22;7103;54.300;10.180;2023-03-20T05:56:52;7.40;99.90
14057;DHT22;7103;54.300;10.180;2023-03-20T05:59:19;7.40;99.90
14057;DHT22;7103;54.300;10.180;2023-03-20T06:01:46;7.50;99.90
14057;DHT22;7103;54.300;10.180;2023-03-20T06:04:13;7.40;99.90
14057;DHT22;7103;54.300;10.180;2023-03-20T06:06:39;7.40;99.90
14057;DHT22;7103;54.300;10.180;2023-03-20T06:09:07;7.40;99.90
14057;DHT22;7103;54.300;10.180;2023-03-20T06:11:34;7.50;99.90
14057;DHT22;7103;54.300;10.180;2023-03-20T06:14:03;7.50;99.90
14057;DHT22;7103;54.300;10.180;2023-03-20T06:16:30;7.50;99.90
14057;DHT22;7103;54.300;10.180;2023-03-20T06:18:57;7.50;99.90
14057;DHT22;7103;54.300;10.180;2023-03-20T06:21:24;7.50;99.90
14057;DHT22;7103;54.300;10.180;2023-03-20T06:23:51;7.40;99.90
14057;DHT22;7103;54.300;10.180;2023-03-20T06:26:20;7.50;99.90
14057;DHT22;7103;54.300;10.180;2023-03-20T06:28:47;7.60;99.90
14057;DHT22;7103;54.300;10.180;2023-03-20T06:31:14;7.60;99.90
14057;DHT22;7103;54.300;10.180;2023-03-20T06:33:42;7.60;99.90
14057;DHT22;7103;54.300;10.180;2023-03-20T06:36:09;7.60;99.90
14057;DHT22;7103;54.300;10.180;2023-03-20T06:38:36;7.60;99.90
14057;DHT22;7103;54.300;10.180;2023-03-20T06:41:03;7.70;99.90
14057;DHT22;7103;54.300;10.180;2023-03-20T06:43:30;7.60;99.90
14057;DHT22;7103;54.300;10.180;2023-03-20T06:45:57;7.60;99.90
14057;DHT22;7103;54.300;10.180;2023-03-20T06:48:24;7.70;99.90
14057;DHT22;7103;54.300;10.180;2023-03-20T06:50:51;7.60;99.90
14057;DHT22;7103;54.300;10.180;2023-03-20T06:53:19;7.60;99.90
14057;DHT22;7103;54.300;10.180;2023-03-20T06:55:47;7.70;99.90
14057;DHT22;7103;54.300;10.180;2023-03-20T06:58:14;7.70;99.90
14057;DHT22;7103;54.300;10.180;2023-03-20T07:00:41;7.70;99.90
14057;DHT22;7103;54.300;10.180;2023-03-20T07:03:09;7.70;99.90
14057;DHT22;7103;54.300;10.180;2023-03-20T07:05:36;7.70;99.90
14057;DHT22;7103;54.300;10.180;2023-03-20T07:08:05;7.80;99.90
14057;DHT22;7103;54.300;10.180;2023-03-20T07:10:33;7.80;99.90
14057;DHT22;7103;54.300;10.180;2023-03-20T07:13:00;7.80;99.90
14057;DHT22;7103;54.300;10.180;2023-03-20T07:15:27;7.80;99.90
14057;DHT22;7103;54.300;10.180;2023-03-20T07:17:55;7.80;99.90
14057;DHT22;7103;54.300;10.180;2023-03-20T07:20:22;7.80;99.90
14057;DHT22;7103;54.300;10.180;2023-03-20T07:22:49;7.80;99.90
14057;DHT22;7103;54.300;10.180;2023-03-20T07:25:16;7.90;99.90
14057;DHT22;7103;54.300;10.180;2023-03-20T07:27:51;7.90;99.90
14057;DHT22;7103;54.300;10.180;2023-03-20T07:30:18;7.90;99.90
14057;DHT22;7103;54.300;10.180;2023-03-20T07:32:45;8.00;99.90
14057;DHT22;7103;54.300;10.180;2023-03-20T07:35:12;8.00;99.90
14057;DHT22;7103;54.300;10.180;2023-03-20T07:37:39;8.10;99.90
14057;DHT22;7103;54.300;10.180;2023-03-20T07:40:07;8.00;99.90
14057;DHT22;7103;54.300;10.180;2023-03-20T07:42:34;8.10;99.90
14057;DHT22;7103;54.300;10.180;2023-03-20T07:45:02;8.10;99.90
14057;DHT22;7103;54.300;10.180;2023-03-20T07:47:29;8.00;99.90
14057;DHT22;7103;54.300;10.180;2023-03-20T07:49:56;8.00;99.90
14057;DHT22;7103;54.300;10.180;2023-03-20T07:52:23;8.10;99.90
14057;DHT22;7103;54.300;10.180;2023-03-20T07:54:50;8.10;99.90
14057;DHT22;7103;54.300;10.180;2023-03-20T07:57:17;8.10;99.90
14057;DHT22;7103;54.300;10.180;2023-03-20T07:59:44;8.00;99.90
14057;DHT22;7103;54.300;10.180;2023-03-20T08:02:15;8.10;99.90
14057;DHT22;7103;54.300;10.180;2023-03-20T08:04:43;8.20;99.90
14057;DHT22;7103;54.300;10.180;2023-03-20T08:07:10;8.10;99.90
14057;DHT22;7103;54.300;10.180;2023-03-20T08:09:38;8.20;99.90
14057;DHT22;7103;54.300;10.180;2023-03-20T08:12:05;8.20;99.90
14057;DHT22;7103;54.300;10.180;2023-03-20T08:14:32;8.20;99.90
14057;DHT22;7103;54.300;10.180;2023-03-20T08:16:59;8.20;99.90
14057;DHT22;7103;54.300;10.180;2023-03-20T08:19:40;8.20;99.90
14057;DHT22;7103;54.300;10.180;2023-03-20T08:22:07;8.20;99.90
14057;DHT22;7103;54.300;10.180;2023-03-20T08:24:34;8.30;99.90
14057;DHT22;7103;54.300;10.180;2023-03-20T08:27:01;8.30;99.90
14057;DHT22;7103;54.300;10.180;2023-03-20T08:29:28;8.40;99.90
14057;DHT22;7103;54.300;10.180;2023-03-20T08:31:55;8.40;99.90
14057;DHT22;7103;54.300;10.180;2023-03-20T08:34:22;8.30;99.90
14057;DHT22;7103;54.300;10.180;2023-03-20T08:36:49;8.30;99.90
14057;DHT22;7103;54.300;10.180;2023-03-20T08:39:18;8.40;99.90
14057;DHT22;7103;54.300;10.180;2023-03-20T08:41:44;8.40;99.90
14057;DHT22;7103;54.300;10.180;2023-03-20T08:44:12;8.40;99.90
14057;DHT22;7103;54.300;10.180;2023-03-20T08:46:39;8.40;99.90
14057;DHT22;7103;54.300;10.180;2023-03-20T08:49:06;8.50;99.90
14057;DHT22;7103;54.300;10.180;2023-03-20T08:51:33;8.50;99.90
14057;DHT22;7103;54.300;10.180;2023-03-20T08:54:00;8.50;99.90
14057;DHT22;7103;54.300;10.180;2023-03-20T08:56:27;8.60;99.90
14057;DHT22;7103;54.300;10.180;2023-03-20T08:58:54;8.60;99.90
14057;DHT22;7103;54.300;10.180;2023-03-20T09:01:22;8.60;99.90
14057;DHT22;7103;54.300;10.180;2023-03-20T09:03:49;8.50;99.90
14057;DHT22;7103;54.300;10.180;2023-03-20T09:06:16;8.60;99.90
14057;DHT22;7103;54.300;10.180;2023-03-20T09:08:42;8.50;99.90
14057;DHT22;7103;54.300;10.180;2023-03-20T09:11:09;8.50;99.90
14057;DHT22;7103;54.300;10.180;2023-03-20T09:13:36;8.50;99.90
14057;DHT22;7103;54.300;10.180;2023-03-20T09:16:03;8.40;99.90
14057;DHT22;7103;54.300;10.180;2023-03-20T09:18:31;8.50;99.90
14057;DHT22;7103;54.300;10.180;2023-03-20T09:20:58;8.50;99.90
14057;DHT22;7103;54.300;10.180;2023-03-20T09:23:24;8.50;99.90
14057;DHT22;7103;54.300;10.180;2023-03-20T09:25:51;8.50;99.90
14057;DHT22;7103;54.300;10.180;2023-03-20T09:28:18;8.60;99.90
14057;DHT22;7103;54.300;10.180;2023-03-20T09:30:46;8.60;99.90
14057;DHT22;7103;54.300;10.180;2023-03-20T09:33:14;8.60;99.90
14057;DHT22;7103;54.300;10.180;2023-03-20T09:35:41;8.60;99.90
14057;DHT22;7103;54.300;10.180;2023-03-20T09:38:09;8.70;99.90
14057;DHT22;7103;54.300;10.180;2023-03-20T09:40:56;8.70;99.90
14057;DHT22;7103;54.300;10.180;2023-03-20T09:49:11;8.60;99.90
14057;DHT22;7103;54.300;10.180;2023-03-20T09:51:57;8.70;99.90
14057;DHT22;7103;54.300;10.180;2023-03-20T09:54:46;8.70;99.90
14057;DHT22;7103;54.300;10.180;2023-03-20T09:57:31;8.80;99.90
14057;DHT22;7103;54.300;10.180;2023-03-20T10:00:14;8.80;99.90
14057;DHT22;7103;54.300;10.180;2023-03-20T10:07:48;8.80;99.90
14057;DHT22;7103;54.300;10.180;2023-03-20T10:10:15;8.80;99.90
14057;DHT22;7103;54.300;10.180;2023-03-20T10:15:37;8.80;99.90
14057;DHT22;7103;54.300;10.180;2023-03-20T10:18:24;8.80;99.90
14057;DHT22;7103;54.300;10.180;2023-03-20T10:21:15;8.80;99.90
14057;DHT22;7103;54.300;10.180;2023-03-20T10:26:23;8.80;99.90
14057;DHT22;7103;54.300;10.180;2023-03-20T10:37:57;8.80;99.90
14057;DHT22;7103;54.300;10.180;2023-03-20T10:40:31;8.90;99.90
14057;DHT22;7103;54.300;10.180;2023-03-20T10:43:13;8.90;99.90
14057;DHT22;7103;54.300;10.180;2023-03-20T10:45:47;8.90;99.90
14057;DHT22;7103;54.300;10.180;2023-03-20T10:49:13;9.00;99.90
14057;DHT22;7103;54.300;10.180;2023-03-20T10:51:19;9.20;99.90
14057;DHT22;7103;54.300;10.180;2023-03-20T10:53:59;9.10;99.90
14057;DHT22;7103;54.300;10.180;2023-03-20T10:56:37;9.10;99.90
14057;DHT22;7103;54.300;10.180;2023-03-20T10:59:21;9.10;99.90
14057;DHT22;7103;54.300;10.180;2023-03-20T11:01:49;9.10;99.90
14057;DHT22;7103;54.300;10.180;2023-03-20T11:04:16;9.00;99.90
14057;DHT22;7103;54.300;10.180;2023-03-20T11:06:50;9.00;99.90
14057;DHT22;7103;54.300;10.180;2023-03-20T11:09:22;9.10;99.90
14057;DHT22;7103;54.300;10.180;2023-03-20T11:11:56;9.10;99.90
14057;DHT22;7103;54.300;10.180;2023-03-20T11:14:26;9.00;99.90
14057;DHT22;7103;54.300;10.180;2023-03-20T11:16:55;9.00;99.90
14057;DHT22;7103;54.300;10.180;2023-03-20T11:19:26;9.00;99.90
14057;DHT22;7103;54.300;10.180;2023-03-20T11:21:55;9.00;99.90
14057;DHT22;7103;54.300;10.180;2023-03-20T11:26:53;9.00;99.90
14057;DHT22;7103;54.300;10.180;2023-03-20T11:29:28;9.00;99.90
14057;DHT22;7103;54.300;10.180;2023-03-20T11:32:49;9.10;99.90
14057;DHT22;7103;54.300;10.180;2023-03-20T11:34:50;9.10;99.90
14057;DHT22;7103;54.300;10.180;2023-03-20T11:37:26;9.10;99.90
14057;DHT22;7103;54.300;10.180;2023-03-20T11:40:00;9.20;99.90
14057;DHT22;7103;54.300;10.180;2023-03-20T11:42:30;9.20;99.90
14057;DHT22;7103;54.300;10.180;2023-03-20T11:45:15;9.10;99.90
14057;DHT22;7103;54.300;10.180;2023-03-20T11:47:43;9.20;99.90
14057;DHT22;7103;54.300;10.180;2023-03-20T11:50:29;9.20;99.90
14057;DHT22;7103;54.300;10.180;2023-03-20T11:52:57;9.20;99.90
14057;DHT22;7103;54.300;10.180;2023-03-20T11:55:31;9.30;99.90
14057;DHT22;7103;54.300;10.180;2023-03-20T11:58:00;9.30;99.90
14057;DHT22;7103;54.300;10.180;2023-03-20T12:00:38;9.30;99.90
14057;DHT22;7103;54.300;10.180;2023-03-20T12:03:35;9.30;99.90
14057;DHT22;7103;54.300;10.180;2023-03-20T12:06:06;9.30;99.90
14057;DHT22;7103;54.300;10.180;2023-03-20T12:08:35;9.20;99.90
14057;DHT22;7103;54.300;10.180;2023-03-20T12:13:45;9.30;99.90
14057;DHT22;7103;54.300;10.180;2023-03-20T12:16:17;9.30;99.90
14057;DHT22;7103;54.300;10.180;2023-03-20T12:18:48;9.30;99.90
14057;DHT22;7103;54.300;10.180;2023-03-20T12:21:25;9.30;99.90
14057;DHT22;7103;54.300;10.180;2023-03-20T12:26:26;9.40;99.90
14057;DHT22;7103;54.300;10.180;2023-03-20T12:31:54;9.40;99.90
14057;DHT22;7103;54.300;10.180;2023-03-20T12:36:53;9.60;99.90
14057;DHT22;7103;54.300;10.180;2023-03-20T12:39:23;9.60;99.90
14057;DHT22;7103;54.300;10.180;2023-03-20T12:44:35;9.70;99.90
14057;DHT22;7103;54.300;10.180;2023-03-20T12:47:17;9.80;99.90
14057;DHT22;7103;54.300;10.180;2023-03-20T12:49:59;9.80;99.90
14057;DHT22;7103;54.300;10.180;2023-03-20T12:52:37;9.80;96.30
14057;DHT22;7103;54.300;10.180;2023-03-20T12:55:18;9.90;72.10
14057;DHT22;7103;54.300;10.180;2023-03-20T13:01:03;10.00;21.10
14057;DHT22;7103;54.300;10.180;2023-03-20T13:06:29;10.00;5.10
14057;DHT22;7103;54.300;10.180;2023-03-20T13:17:26;10.20;1.00
14057;DHT22;7103;54.300;10.180;2023-03-20T13:27:53;10.10;1.00
14057;DHT22;7103;54.300;10.180;2023-03-20T13:38:57;9.80;1.00
14057;DHT22;7103;54.300;10.180;2023-03-20T13:41:25;9.90;1.00
14057;DHT22;7103;54.300;10.180;2023-03-20T13:43:56;9.70;1.00
14057;DHT22;7103;54.300;10.180;2023-03-20T13:46:46;9.90;1.00
14057;DHT22;7103;54.300;10.180;2023-03-20T13:49:35;9.70;1.00
14057;DHT22;7103;54.300;10.180;2023-03-20T13:52:21;9.60;1.00
14057;DHT22;7103;54.300;10.180;2023-03-20T14:05:54;9.40;1.00
14057;DHT22;7103;54.300;10.180;2023-03-20T14:08:28;9.40;1.00
14057;DHT22;7103;54.300;10.180;2023-03-20T14:13:52;9.50;1.00
14057;DHT22;7103;54.300;10.180;2023-03-20T14:16:20;9.60;1.00
14057;DHT22;7103;54.300;10.180;2023-03-20T14:18:50;9.60;1.00
14057;DHT22;7103;54.300;10.180;2023-03-20T14:21:29;9.60;1.00
14057;DHT22;7103;54.300;10.180;2023-03-20T14:24:01;9.50;1.00
14057;DHT22;7103;54.300;10.180;2023-03-20T14:26:30;9.40;1.00
14057;DHT22;7103;54.300;10.180;2023-03-20T14:29:47;9.40;1.00
14057;DHT22;7103;54.300;10.180;2023-03-20T14:31:49;9.30;1.00
14057;DHT22;7103;54.300;10.180;2023-03-20T14:34:20;9.20;1.00
14057;DHT22;7103;54.300;10.180;2023-03-20T14:36:58;9.10;1.00
14057;DHT22;7103;54.300;10.180;2023-03-20T14:40:12;9.00;1.00
14057;DHT22;7103;54.300;10.180;2023-03-20T14:45:30;9.00;1.00
14057;DHT22;7103;54.300;10.180;2023-03-20T14:48:08;9.00;6.40
14057;DHT22;7103;54.300;10.180;2023-03-20T14:56:06;8.80;21.00
14057;DHT22;7103;54.300;10.180;2023-03-20T14:58:56;8.80;38.10
14057;DHT22;7103;54.300;10.180;2023-03-20T15:01:47;8.60;51.10
14057;DHT22;7103;54.300;10.180;2023-03-20T15:04:30;8.60;78.90
14057;DHT22;7103;54.300;10.180;2023-03-20T15:07:14;8.70;96.50
14057;DHT22;7103;54.300;10.180;2023-03-20T15:09:44;8.60;99.90
14057;DHT22;7103;54.300;10.180;2023-03-20T15:12:13;8.70;99.90
14057;DHT22;7103;54.300;10.180;2023-03-20T15:14:51;8.60;99.90
14057;DHT22;7103;54.300;10.180;2023-03-20T15:17:24;8.70;99.90
14057;DHT22;7103;54.300;10.180;2023-03-20T15:20:11;8.70;99.90
14057;DHT22;7103;54.300;10.180;2023-03-20T15:22:53;8.80;99.90
14057;DHT22;7103;54.300;10.180;2023-03-20T15:25:45;8.90;99.90
14057;DHT22;7103;54.300;10.180;2023-03-20T15:28:22;9.00;99.90
14057;DHT22;7103;54.300;10.180;2023-03-20T15:30:51;9.00;99.90
14057;DHT22;7103;54.300;10.180;2023-03-20T15:35:51;9.00;99.90
14057;DHT22;7103;54.300;10.180;2023-03-20T15:38:18;9.00;99.90
14057;DHT22;7103;54.300;10.180;2023-03-20T15:40:46;9.10;99.90
14057;DHT22;7103;54.300;10.180;2023-03-20T15:43:20;9.00;99.90
14057;DHT22;7103;54.300;10.180;2023-03-20T15:45:48;9.00;99.90
14057;DHT22;7103;54.300;10.180;2023-03-20T15:48:18;9.00;99.90
14057;DHT22;7103;54.300;10.180;2023-03-20T15:50:49;9.00;99.90
14057;DHT22;7103;54.300;10.180;2023-03-20T15:53:38;9.00;99.90
14057;DHT22;7103;54.300;10.180;2023-03-20T15:56:19;9.00;99.90
14057;DHT22;7103;54.300;10.180;2023-03-20T15:58:50;9.00;99.90
14057;DHT22;7103;54.300;10.180;2023-03-20T16:01:21;9.00;99.90
14057;DHT22;7103;54.300;10.180;2023-03-20T16:03:49;9.00;99.90
14057;DHT22;7103;54.300;10.180;2023-03-20T16:06:19;8.90;99.90
14057;DHT22;7103;54.300;10.180;2023-03-20T16:08:57;8.90;99.90
14057;DHT22;7103;54.300;10.180;2023-03-20T16:11:32;8.90;99.90
14057;DHT22;7103;54.300;10.180;2023-03-20T16:14:00;8.90;99.90
14057;DHT22;7103;54.300;10.180;2023-03-20T16:16:27;8.90;99.90
14057;DHT22;7103;54.300;10.180;2023-03-20T16:19:00;8.90;99.90
14057;DHT22;7103;54.300;10.180;2023-03-20T16:21:32;9.00;99.90
14057;DHT22;7103;54.300;10.180;2023-03-20T16:24:08;9.00;99.90
14057;DHT22;7103;54.300;10.180;2023-03-20T16:26:40;8.90;99.90
14057;DHT22;7103;54.300;10.180;2023-03-20T16:29:11;8.80;99.90
14057;DHT22;7103;54.300;10.180;2023-03-20T16:31:47;8.80;99.90
14057;DHT22;7103;54.300;10.180;2023-03-20T16:34:22;8.70;99.90
14057;DHT22;7103;54.300;10.180;2023-03-20T16:36:55;8.70;99.90
14057;DHT22;7103;54.300;10.180;2023-03-20T16:39:26;8.70;99.90
14057;DHT22;7103;54.300;10.180;2023-03-20T16:44:34;8.60;99.90
14057;DHT22;7103;54.300;10.180;2023-03-20T16:47:34;8.70;99.90
14057;DHT22;7103;54.300;10.180;2023-03-20T16:50:22;8.70;99.90
14057;DHT22;7103;54.300;10.180;2023-03-20T16:52:56;8.70;99.90
14057;DHT22;7103;54.300;10.180;2023-03-20T16:55:30;8.70;99.90
14057;DHT22;7103;54.300;10.180;2023-03-20T16:58:00;8.70;99.90
14057;DHT22;7103;54.300;10.180;2023-03-20T17:00:32;8.70;99.90
14057;DHT22;7103;54.300;10.180;2023-03-20T17:03:00;8.60;99.90
14057;DHT22;7103;54.300;10.180;2023-03-20T17:05:58;8.60;99.90
14057;DHT22;7103;54.300;10.180;2023-03-20T17:08:39;8.60;99.90
14057;DHT22;7103;54.300;10.180;2023-03-20T17:11:15;8.50;99.90
14057;DHT22;7103;54.300;10.180;2023-03-20T17:13:47;8.50;99.90
14057;DHT22;7103;54.300;10.180;2023-03-20T17:16:19;8.50;99.90
14057;DHT22;7103;54.300;10.180;2023-03-20T17:18:58;8.40;99.90
14057;DHT22;7103;54.300;10.180;2023-03-20T17:21:26;8.50;99.90
14057;DHT22;7103;54.300;10.180;2023-03-20T17:23:52;8.40;99.90
14057;DHT22;7103;54.300;10.180;2023-03-20T17:26:19;8.40;99.90
14057;DHT22;7103;54.300;10.180;2023-03-20T17:28:46;8.40;99.90
14057;DHT22;7103;54.300;10.180;2023-03-20T17:31:15;8.40;99.90
14057;DHT22;7103;54.300;10.180;2023-03-20T17:33:43;8.30;99.90
14057;DHT22;7103;54.300;10.180;2023-03-20T17:36:22;8.40;99.90
14057;DHT22;7103;54.300;10.180;2023-03-20T17:38:49;8.40;99.90
14057;DHT22;7103;54.300;10.180;2023-03-20T17:41:18;8.40;99.90
14057;DHT22;7103;54.300;10.180;2023-03-20T17:43:45;8.40;99.90
14057;DHT22;7103;54.300;10.180;2023-03-20T17:46:21;8.40;99.90
14057;DHT22;7103;54.300;10.180;2023-03-20T17:48:50;8.30;99.90
14057;DHT22;7103;54.300;10.180;2023-03-20T17:51:18;8.20;99.90
14057;DHT22;7103;54.300;10.180;2023-03-20T17:53:45;8.20;99.90
14057;DHT22;7103;54.300;10.180;2023-03-20T17:56:14;8.20;99.90
14057;DHT22;7103;54.300;10.180;2023-03-20T17:58:41;8.20;99.90
14057;DHT22;7103;54.300;10.180;2023-03-20T18:01:12;8.20;99.90
14057;DHT22;7103;54.300;10.180;2023-03-20T18:03:39;8.20;99.90
14057;DHT22;7103;54.300;10.180;2023-03-20T18:06:08;8.20;99.90
14057;DHT22;7103;54.300;10.180;2023-03-20T18:08:36;8.20;99.90
14057;DHT22;7103;54.300;10.180;2023-03-20T18:11:04;8.20;99.90
14057;DHT22;7103;54.300;10.180;2023-03-20T18:13:31;8.20;99.90
14057;DHT22;7103;54.300;10.180;2023-03-20T18:15:58;8.30;99.90
14057;DHT22;7103;54.300;10.180;2023-03-20T18:18:25;8.20;99.90
14057;DHT22;7103;54.300;10.180;2023-03-20T18:20:52;8.20;99.90
14057;DHT22;7103;54.300;10.180;2023-03-20T18:23:20;8.20;99.90
14057;DHT22;7103;54.300;10.180;2023-03-20T18:25:48;8.10;99.90
14057;DHT22;7103;54.300;10.180;2023-03-20T18:28:16;8.20;99.90
14057;DHT22;7103;54.300;10.180;2023-03-20T18:30:49;8.20;99.90
14057;DHT22;7103;54.300;10.180;2023-03-20T18:33:16;8.30;99.90